Surface/Precipitation History
05/23/2016 09:42  to  5/24/2016 09:42
Change End Date:
Date/Time
(MDT)
Sf
Temp Chem Water Layer Surface Precipitation
Sfc Pvt Sub Frz Factor Pct Dpth DpthThk IcePct Cond Salin FI Type Intens Accum Rate
05/24/2016 09:30 Wet 48.6F - 51F 32F 5 0% 0.00 in - 0% 0 mhos 3 - Yes Moderate 0.19 in 0.0 iph
05/24/2016 09:24 Error 47.7F - 51F - - - - - - 0 mhos 4 - Yes Moderate 0.19 in 0.0 iph
05/24/2016 09:15 Wet 46.8F - 51F 32F 10 0% 0.00 in - 0% 0 mhos 4 - Yes Moderate 0.19 in 0.0 iph
05/24/2016 09:14 Wet 46.6F - 51F 32F 5 0% 0.20 in - 0% 0 mhos 1 - Yes Moderate 0.19 in 0.0 iph
05/24/2016 09:04 Wet 45.9F - 51F 32F 5 0% 0.00 in - 0% 0 mhos 4 - Yes Moderate 0.19 in 0.0 iph
05/24/2016 09:00 Wet 45.9F - 51F 32F 5 0% 0.60 in - 0% 0 mhos 1 - Yes Moderate 0.19 in 0.0 iph
05/24/2016 08:54 Wet 45.9F - 51F 32F 5 0% 0.00 in - 0% 0 mhos 3 - Yes Moderate 0.19 in 0.0 iph
05/24/2016 08:45 Error 45.5F - 51F - - - - - - 0 mhos 3 - Yes Moderate 0.19 in 0.0 iph
05/24/2016 08:44 Error 45.5F - 51F - - - - - - 0 mhos 3 - Yes Moderate 0.19 in 0.0 iph
05/24/2016 08:34 Error 45.1F - 51F - - - - - - 0 mhos 3 - Yes Moderate 0.19 in 0.0 iph
05/24/2016 08:30 Wet 45.0F - 51F 32F 5 0% 0.00 in - 0% 0 mhos 3 - Rain Slight 0.19 in 0.0 iph
05/24/2016 08:24 Wet 44.6F - 51F 32F 5 0% 0.10 in - 0% 0 mhos 2 - Yes Moderate 0.19 in 0.0 iph
05/24/2016 08:15 Wet 44.4F - 51F 32F 10 0% 0.10 in - 0% 0 mhos 2 - Rain Slight 0.19 in 0.0 iph
05/24/2016 08:14 Wet 44.4F - 51F 32F 10 0% 0.10 in - 0% 0 mhos 2 - Rain Slight 0.19 in 0.0 iph
05/24/2016 08:04 Error 44.2F - 51F - - - - - - 0 mhos 2 - Rain Slight 0.19 in 0.1 iph
Date/Time
(MDT)
Sf
Temp Chem Water Layer Surface Precipitation
Sfc Pvt Sub Frz Factor Pct Dpth DpthThk IcePct Cond Salin FI Type Intens Accum Rate
05/24/2016 08:00 Error 44.2F - 51F - - - - - - 0 mhos 3 - Rain Slight 0.18 in 0.0 iph
05/24/2016 07:54 Error 44.4F - 51F - - - - - - 0 mhos 3 - Rain Slight 0.18 in 0.0 iph
05/24/2016 07:45 Error 44.4F - 51F - - - - - - 0 mhos 4 - Rain Slight 0.17 in 0.0 iph
05/24/2016 07:44 Wet 44.4F - 51F 32F 5 0% 0.10 in - 0% 0 mhos 2 - Yes Moderate 0.17 in 0.0 iph
05/24/2016 07:34 Wet 44.2F - 51F 32F 5 0% 0.10 in - 0% 0 mhos 2 - Yes Moderate 0.17 in 0.0 iph
05/24/2016 07:30 Wet 44.2F - 51F 32F 5 0% 0.10 in - 0% 0 mhos 2 - Yes Moderate 0.17 in 0.0 iph
05/24/2016 07:24 Wet 44.1F - 51F 32F 5 0% 0.10 in - 0% 0 mhos 1 - Yes Slight 0.17 in 0.0 iph
05/24/2016 07:15 Wet 43.9F - 51F 32F 5 0% 0.10 in - 0% 0 mhos 2 - Yes Moderate 0.17 in 0.0 iph
05/24/2016 07:14 Wet 43.7F - 51F 32F 5 0% 0.10 in - 0% 0 mhos 2 - Yes Moderate 0.17 in 0.0 iph
05/24/2016 07:04 Wet 43.9F - 51F 32F 5 0% 0.10 in - 0% 0 mhos 2 - Yes Slight 0.17 in 0.0 iph
05/24/2016 07:00 Wet 43.7F - 51F 32F 5 0% 0.10 in - 0% 0 mhos 1 - Yes Moderate 0.17 in 0.0 iph
05/24/2016 06:54 Wet 43.7F - 51F 32F 5 0% 0.00 in - 0% 0 mhos 3 - Yes Moderate 0.17 in 0.0 iph
05/24/2016 06:45 Wet 43.5F - 51F 32F 5 0% 0.00 in - 0% 0 mhos 4 - Yes Moderate 0.17 in 0.0 iph
05/24/2016 06:44 Wet 43.5F - 51F 32F 5 0% 0.00 in - 0% 0 mhos 4 - Yes Moderate 0.17 in 0.0 iph
05/24/2016 06:34 Wet 43.5F - 51F 32F 5 0% 0.20 in - 0% 0 mhos 1 - Yes Moderate 0.17 in 0.0 iph
Date/Time
(MDT)
Sf
Temp Chem Water Layer Surface Precipitation
Sfc Pvt Sub Frz Factor Pct Dpth DpthThk IcePct Cond Salin FI Type Intens Accum Rate
05/24/2016 06:30 Error 43.5F - 51F - - - - - - 0 mhos 3 - Yes Moderate 0.17 in 0.0 iph
05/24/2016 06:24 Wet 43.3F - 51F 32F 5 0% 0.00 in - 0% 0 mhos 3 - Yes Moderate 0.17 in 0.0 iph
05/24/2016 06:15 Wet 43.3F - 51F 32F 5 0% 0.00 in - 0% 0 mhos 3 - Yes Moderate 0.17 in 0.0 iph
05/24/2016 06:14 Wet 43.2F - 51F 32F 5 0% 0.00 in - 0% 0 mhos 3 - Yes Moderate 0.17 in 0.0 iph
05/24/2016 06:04 Wet 43.3F - 51F 32F 5 0% 0.10 in - 0% 0 mhos 2 - Yes Slight 0.17 in 0.0 iph
05/24/2016 06:00 Wet 43.3F - 51F 32F 5 0% 0.10 in - 0% 0 mhos 3 - Yes Moderate 0.17 in 0.0 iph
05/24/2016 05:54 Wet 43.3F - 51F 32F 5 0% 0.10 in - 0% 0 mhos 2 - Yes Moderate 0.17 in 0.0 iph
05/24/2016 05:45 Wet 43.3F - 51F 32F 5 0% 0.10 in - 0% 0 mhos 3 - Yes Moderate 0.17 in 0.0 iph
05/24/2016 05:44 Wet 43.3F - 51F 32F 5 0% 0.10 in - 0% 0 mhos 2 - Yes Moderate 0.17 in 0.0 iph
05/24/2016 05:33 Wet 43.3F - 51F 32F 5 0% 0.10 in - 0% 0 mhos 2 - Rain Slight 0.16 in 0.0 iph
05/24/2016 05:30 Wet 43.3F - 51F 32F 5 0% 0.10 in - 0% 0 mhos 2 - Yes Moderate 0.16 in 0.0 iph
05/24/2016 05:23 Wet 43.5F - 51F 32F 10 0% 0.10 in - 0% 0 mhos 2 - Yes Moderate 0.16 in 0.0 iph
05/24/2016 05:15 Wet 43.7F - 51F 32F 5 0% 0.10 in - 0% 0 mhos 1 - Rain Slight 0.16 in 0.0 iph
05/24/2016 05:13 Wet 43.3F - 51F 32F 5 0% 0.10 in - 0% 0 mhos 2 - Yes Moderate 0.16 in 0.0 iph
05/24/2016 05:03 Wet 43.5F - 51F 32F 10 0% 0.10 in - 0% 0 mhos 2 - Rain Slight 0.15 in 0.0 iph
Date/Time
(MDT)
Sf
Temp Chem Water Layer Surface Precipitation
Sfc Pvt Sub Frz Factor Pct Dpth DpthThk IcePct Cond Salin FI Type Intens Accum Rate
05/24/2016 05:00 Wet 43.5F - 51F 32F 5 0% 0.10 in - 0% 0 mhos 2 - Rain Slight 0.15 in 0.1 iph
05/24/2016 04:53 Wet 43.5F - 51F 32F 5 0% 0.10 in - 0% 0 mhos 2 - Rain Slight 0.15 in 0.0 iph
05/24/2016 04:45 Error 43.5F - 51F - - - - - - 0 mhos 3 - Rain Slight 0.14 in 0.0 iph
05/24/2016 04:43 Error 43.5F - 51F - - - - - - 0 mhos 3 - Rain Slight 0.14 in 0.0 iph
05/24/2016 04:33 Wet 43.5F - 51F 32F 5 0% 0.00 in - 0% 0 mhos 3 - Yes Moderate 0.14 in 0.0 iph
05/24/2016 04:30 Wet 43.7F - 51F 32F 10 0% 0.00 in - 0% 0 mhos 3 - Yes Moderate 0.14 in 0.0 iph
05/24/2016 04:23 Wet 43.5F - 51F 32F 5 0% 0.00 in - 0% 0 mhos 3 - Yes Moderate 0.14 in 0.0 iph
05/24/2016 04:15 Wet 43.7F - 51F 32F 5 0% 0.00 in - 0% 0 mhos 3 - Yes Moderate 0.13 in 0.0 iph
05/24/2016 04:13 Wet 43.9F - 51F 32F 10 0% 0.00 in - 0% 0 mhos 3 - Yes Moderate 0.13 in 0.0 iph
05/24/2016 04:03 Wet 43.7F - 51F 32F 5 0% 0.10 in - 0% 0 mhos 3 - Yes Moderate 0.13 in 0.0 iph
05/24/2016 04:00 Wet 43.7F - 51F 32F 10 0% 0.10 in - 0% 0 mhos 3 - Yes Moderate 0.13 in 0.0 iph
05/24/2016 03:53 Wet 43.5F - 51F 32F 10 0% 0.00 in - 0% 0 mhos 3 - Yes Moderate 0.13 in 0.0 iph
05/24/2016 03:45 Wet 43.7F - 51F 32F 10 0% 0.10 in - 0% 0 mhos 3 - Yes Moderate 0.13 in 0.0 iph
05/24/2016 03:43 Wet 43.7F - 51F 32F 10 0% 0.10 in - 0% 0 mhos 3 - Yes Moderate 0.13 in 0.0 iph
05/24/2016 03:33 Wet 43.7F - 51F 32F 5 0% 0.00 in - 0% 0 mhos 3 - None None 0.13 in 0.0 iph
Date/Time
(MDT)
Sf
Temp Chem Water Layer Surface Precipitation
Sfc Pvt Sub Frz Factor Pct Dpth DpthThk IcePct Cond Salin FI Type Intens Accum Rate
05/24/2016 03:30 Wet 43.7F - 51F 32F 10 0% 0.10 in - 0% 0 mhos 3 - Yes Moderate 0.13 in 0.0 iph
05/24/2016 03:23 Wet 43.7F - 51F 32F 5 0% 0.00 in - 0% 0 mhos 3 - Yes Moderate 0.13 in 0.0 iph
05/24/2016 03:15 Wet 43.7F - 51F 32F 10 0% 0.00 in - 0% 0 mhos 3 - Yes Moderate 0.13 in 0.0 iph
05/24/2016 03:13 Wet 43.7F - 51F 32F 5 0% 0.00 in - 0% 0 mhos 3 - Yes Moderate 0.13 in 0.0 iph
05/24/2016 03:03 Wet 43.7F - 51F 32F 5 0% 0.00 in - 0% 0 mhos 4 - Yes Moderate 0.13 in 0.0 iph
05/24/2016 03:00 Error 43.9F - 51F - - - - - - 0 mhos 4 - Yes Moderate 0.13 in 0.0 iph
05/24/2016 02:53 Error 43.7F - 51F - - - - - - 0 mhos 3 - Yes Moderate 0.13 in 0.0 iph
05/24/2016 02:45 Error 43.7F - 51F - - - - - - 0 mhos 4 - Yes Moderate 0.13 in 0.0 iph
05/24/2016 02:43 Error 43.7F - 51F - - - - - - 0 mhos 4 - Yes Moderate 0.13 in 0.0 iph
05/24/2016 02:33 Error 43.9F - 51F - - - - - - 0 mhos 4 - Rain Slight 0.13 in 0.0 iph
05/24/2016 02:30 Wet 43.9F - 51F 32F 5 0% 0.00 in - 0% 0 mhos 4 - Yes Moderate 0.13 in 0.0 iph
05/24/2016 02:23 Error 43.9F - 51F - - - - - - 0 mhos 4 - Yes Moderate 0.13 in 0.0 iph
05/24/2016 02:15 Wet 43.7F - 51F 32F 10 0% 0.10 in - 0% 0 mhos 3 - Yes Moderate 0.13 in 0.0 iph
05/24/2016 02:13 Wet 43.7F - 51F 32F 10 0% 0.00 in - 0% 0 mhos 4 - Yes Moderate 0.13 in 0.0 iph
05/24/2016 02:03 Wet 43.7F - 51F 32F 5 0% 0.00 in - 0% 0 mhos 3 - Yes Moderate 0.13 in 0.0 iph
Date/Time
(MDT)
Sf
Temp Chem Water Layer Surface Precipitation
Sfc Pvt Sub Frz Factor Pct Dpth DpthThk IcePct Cond Salin FI Type Intens Accum Rate
05/24/2016 02:00 Error 43.9F - 51F - - - - - - 0 mhos 1 - Yes Moderate 0.13 in 0.0 iph
05/24/2016 01:53 Wet 43.9F - 51F 32F 5 0% 0.00 in - 0% 0 mhos 3 - Yes Moderate 0.13 in 0.0 iph
05/24/2016 01:45 Wet 43.9F - 51F 32F 5 0% 0.00 in - 0% 0 mhos 3 - Yes Moderate 0.13 in 0.0 iph
05/24/2016 01:43 Wet 43.9F - 51F 32F 5 0% 0.00 in - 0% 0 mhos 3 - Yes Moderate 0.13 in 0.0 iph
05/24/2016 01:33 Wet 43.9F - 51F 32F 5 0% 0.00 in - 0% 0 mhos 3 - Yes Moderate 0.13 in 0.0 iph
05/24/2016 01:30 Error 43.7F - 51F - - - - - - 0 mhos 6 - Yes Moderate 0.13 in 0.0 iph
05/24/2016 01:23 Wet 43.7F - 51F 32F 5 0% 0.10 in - 0% 0 mhos 3 - None None 0.13 in 0.0 iph
05/24/2016 01:15 Wet 43.7F - 51F 32F 5 0% 0.10 in - 0% 0 mhos 2 - Yes Slight 0.13 in 0.0 iph
05/24/2016 01:13 Wet 43.9F - 51F 32F 10 0% 0.00 in - 0% 0 mhos 6 - Yes Moderate 0.13 in 0.0 iph
05/24/2016 01:03 Wet 43.9F - 51F 32F 5 0% 0.00 in - 0% 0 mhos 4 - None None 0.13 in 0.0 iph
05/24/2016 01:00 Wet 43.9F - 51F 32F 5 0% 0.10 in - 0% 0 mhos 2 - Yes Slight 0.13 in 0.0 iph
05/24/2016 00:53 Wet 43.9F - 51F 32F 5 0% 0.00 in - 0% 0 mhos 4 - None None 0.13 in 0.0 iph
05/24/2016 00:45 Wet 43.7F - 51F 32F 5 0% 0.00 in - 0% 0 mhos 6 - Yes Moderate 0.13 in 0.0 iph
05/24/2016 00:43 Wet 43.7F - 51F 32F 5 0% 0.00 in - 0% 0 mhos 5 - None None 0.13 in 0.0 iph
05/24/2016 00:33 Wet 43.7F - 51F 32F 5 0% 0.00 in - 0% 0 mhos 4 - Yes Moderate 0.13 in 0.0 iph
Date/Time
(MDT)
Sf
Temp Chem Water Layer Surface Precipitation
Sfc Pvt Sub Frz Factor Pct Dpth DpthThk IcePct Cond Salin FI Type Intens Accum Rate
05/24/2016 00:30 Wet 43.9F - 51F 32F 5 0% 0.00 in - 0% 0 mhos 3 - Yes Slight 0.13 in 0.0 iph
05/24/2016 00:23 Wet 43.9F - 51F 32F 5 0% 0.00 in - 0% 0 mhos 5 - None None 0.13 in 0.0 iph
05/24/2016 00:15 Wet 43.9F - 51F 32F 5 0% 0.00 in - 0% 0 mhos 4 - None None 0.13 in 0.0 iph
05/24/2016 00:12 Wet 43.7F - 51F 32F 5 0% 0.00 in - 0% 0 mhos 4 - None None 0.13 in 0.0 iph
05/24/2016 00:02 Wet 43.9F - 51F 32F 5 0% 0.00 in - 0% 0 mhos 6 - None None 0.13 in 0.0 iph
05/24/2016 00:00 Error 43.9F - 51F - - - - - - 0 mhos 5 - None None 0.13 in 0.0 iph
05/23/2016 23:52 Wet 43.9F - 51F 32F 5 0% 0.00 in - 0% 0 mhos 3 - None None 0.13 in 0.0 iph
05/23/2016 23:45 Wet 43.9F - 51F 32F 5 0% 0.10 in - 0% 0 mhos 3 - Yes Moderate 0.13 in 0.0 iph
05/23/2016 23:42 Wet 43.9F - 51F 32F 5 0% 0.00 in - 0% 0 mhos 7 - Yes Moderate 0.13 in 0.0 iph
05/23/2016 23:32 Wet 44.1F - 51F 32F 5 0% 0.00 in - 0% 0 mhos 7 - None None 0.13 in 0.0 iph
05/23/2016 23:30 Wet 44.1F - 51F 32F 5 0% 0.00 in - 0% 0 mhos 7 - Yes Moderate 0.13 in 0.0 iph
05/23/2016 23:22 Error 44.1F - 51F - - - - - - 0 mhos 7 - Yes Slight 0.13 in 0.0 iph
05/23/2016 23:15 Wet 44.1F - 51F 32F 5 0% 0.00 in - 0% 0 mhos 3 - Yes Moderate 0.13 in 0.0 iph
05/23/2016 23:12 Error 44.2F - 51F - - - - - - 0 mhos 2 - Yes Moderate 0.13 in 0.0 iph
05/23/2016 23:02 Wet 44.2F - 51F 32F 10 0% 0.10 in - 0% 0 mhos 2 - None None 0.13 in 0.0 iph
Date/Time
(MDT)
Sf
Temp Chem Water Layer Surface Precipitation
Sfc Pvt Sub Frz Factor Pct Dpth DpthThk IcePct Cond Salin FI Type Intens Accum Rate
05/23/2016 23:00 Wet 44.2F - 51F 32F 10 0% 0.10 in - 0% 0 mhos 2 - Yes Slight 0.13 in 0.0 iph
05/23/2016 22:52 Wet 44.2F - 51F 32F 5 0% 0.00 in - 0% 0 mhos 6 - None None 0.13 in 0.0 iph
05/23/2016 22:45 Wet 44.4F - 51F 32F 5 0% 0.00 in - 0% 0 mhos 3 - Yes Moderate 0.13 in 0.0 iph
05/23/2016 22:42 Wet 44.6F - 51F 32F 5 0% 0.10 in - 0% 0 mhos 2 - Yes Moderate 0.13 in 0.0 iph
05/23/2016 22:32 Wet 44.6F - 51F 32F 5 0% 0.00 in - 0% 0 mhos 7 - Yes Slight 0.13 in 0.0 iph
05/23/2016 22:30 Wet 44.4F - 51F 32F 10 0% 0.00 in - 0% 0 mhos 5 - Yes Slight 0.13 in 0.0 iph
05/23/2016 22:22 Wet 44.4F - 51F 32F 5 0% 0.00 in - 0% 0 mhos 5 - Yes Moderate 0.13 in 0.0 iph
05/23/2016 22:15 Wet 44.4F - 51F 32F 5 0% 0.00 in - 0% 0 mhos 4 - Yes Moderate 0.13 in 0.0 iph
05/23/2016 22:12 Wet 44.6F - 51F 32F 5 0% 0.10 in - 0% 0 mhos 3 - Yes Moderate 0.13 in 0.0 iph
05/23/2016 22:02 Wet 44.6F - 51F 32F 5 0% 0.00 in - 0% 0 mhos 4 - Yes Moderate 0.13 in 0.0 iph
05/23/2016 22:00 Wet 44.6F - 51F 32F 5 0% 0.00 in - 0% 0 mhos 3 - Yes Slight 0.13 in 0.0 iph
05/23/2016 21:52 Wet 44.6F - 51F 32F 5 0% 0.00 in - 0% 0 mhos 4 - Yes Moderate 0.13 in 0.0 iph
05/23/2016 21:45 Wet 44.8F - 51F 32F 5 0% 0.10 in - 0% 0 mhos 3 - Yes Moderate 0.13 in 0.0 iph
05/23/2016 21:42 Wet 44.8F - 51F 32F 5 0% 0.10 in - 0% 0 mhos 2 - Yes Moderate 0.13 in 0.0 iph
05/23/2016 21:32 Wet 44.8F - 51F 32F 5 0% 0.10 in - 0% 0 mhos 2 - Yes Moderate 0.13 in 0.0 iph
Date/Time
(MDT)
Sf
Temp Chem Water Layer Surface Precipitation
Sfc Pvt Sub Frz Factor Pct Dpth DpthThk IcePct Cond Salin FI Type Intens Accum Rate
05/23/2016 21:30 Wet 44.8F - 51F 32F 5 0% 0.00 in - 0% 0 mhos 3 - Yes Moderate 0.13 in 0.0 iph
05/23/2016 21:22 Wet 45.0F - 51F 32F 5 0% 0.10 in - 0% 0 mhos 2 - Yes Moderate 0.13 in 0.0 iph
05/23/2016 21:15 Wet 45.1F - 51F 32F 5 0% 0.10 in - 0% 0 mhos 2 - None None 0.15 in 0.0 iph
05/23/2016 21:12 Wet 45.3F - 51F 32F 5 0% 0.10 in - 0% 0 mhos 3 - None None 0.15 in 0.0 iph
05/23/2016 21:02 Wet 45.7F - 51F 32F 5 0% 0.10 in - 0% 0 mhos 2 - None None 0.17 in 0.0 iph
05/23/2016 21:00 Wet 45.9F - 51F 32F 5 0% 0.10 in - 0% 0 mhos 2 - None None 0.18 in 0.0 iph
05/23/2016 20:52 Wet 45.9F - 51F 32F 5 0% 0.20 in - 0% 0 mhos 1 - None None 0.18 in 0.0 iph
05/23/2016 20:45 Wet 45.9F - 51F 32F 5 0% 0.10 in - 0% 0 mhos 2 - Yes Moderate 0.19 in 0.0 iph
05/23/2016 20:42 Wet 46.0F - 51F 32F 5 0% 0.00 in - 0% 0 mhos 4 - None None 0.19 in 0.0 iph
05/23/2016 20:32 Error 46.6F - 51F - - - - - - 0 mhos 4 - Yes Moderate 0.20 in 0.0 iph
05/23/2016 20:30 Error 46.6F - 51F - - - - - - 0 mhos 1 - Yes Moderate 0.20 in 0.0 iph
05/23/2016 20:22 Wet 46.6F - 51F 32F 10 0% 0.00 in - 0% 0 mhos 4 - Yes Moderate 0.20 in 0.0 iph
05/23/2016 20:15 Wet 46.6F - 51F 32F 5 0% 0.10 in - 0% 0 mhos 1 - Yes Moderate 0.20 in 0.0 iph
05/23/2016 20:12 Error 46.8F - 51F - - - - - - 0 mhos 3 - Yes Moderate 0.20 in 0.0 iph
05/23/2016 20:02 Wet 46.9F - 51F 32F 5 0% 0.10 in - 0% 0 mhos 3 - Yes Moderate 0.20 in 0.0 iph
Date/Time
(MDT)
Sf
Temp Chem Water Layer Surface Precipitation
Sfc Pvt Sub Frz Factor Pct Dpth DpthThk IcePct Cond Salin FI Type Intens Accum Rate
05/23/2016 20:00 Wet 47.1F - 51F 32F 10 0% 0.10 in - 0% 0 mhos 3 - Yes Moderate 0.20 in 0.0 iph
05/23/2016 19:52 Wet 47.1F - 51F 32F 10 0% 0.10 in - 0% 0 mhos 3 - Yes Moderate 0.20 in 0.0 iph
05/23/2016 19:45 Error 47.5F - 51F - - - - - - 0 mhos 3 - Rain Slight 0.20 in 0.0 iph
05/23/2016 19:42 Error 47.5F - 51F - - - - - - 0 mhos 3 - Rain Slight 0.20 in 0.0 iph
05/23/2016 19:32 Error 47.5F - 51F - - - - - - 0 mhos 2 - Rain Moderate 0.20 in 0.1 iph
05/23/2016 19:30 Error 47.5F - 51F - - - - - - 0 mhos 3 - Rain Moderate 0.19 in 0.1 iph
05/23/2016 19:22 Error 47.8F - 51F - - - - - - 0 mhos 3 - Rain Slight 0.19 in 0.0 iph
05/23/2016 19:15 Error 48.0F - 51F - - - - - - 0 mhos 3 - Rain Slight 0.18 in 0.0 iph
05/23/2016 19:12 Error 48.2F - 51F - - - - - - 0 mhos 3 - Rain Slight 0.18 in 0.1 iph
05/23/2016 19:02 Wet 48.4F - 51F 32F 5 0% 0.20 in - 0% 0 mhos 1 - Rain Slight 0.17 in 0.0 iph
05/23/2016 19:00 Error 48.2F - 51F - - - - - - 0 mhos 3 - Yes Moderate 0.17 in 0.0 iph
05/23/2016 18:52 Error 48.2F - 51F - - - - - - 0 mhos 4 - Rain Slight 0.17 in 0.1 iph
05/23/2016 18:45 Error 48.2F - 51F - - - - - - 0 mhos 4 - Yes Moderate 0.17 in 0.0 iph
05/23/2016 18:42 Wet 48.4F - 51F 32F 5 0% 0.10 in - 0% 0 mhos 1 - Yes Moderate 0.17 in 0.0 iph
05/23/2016 18:32 Error 48.4F - 51F - - - - - - 0 mhos 5 - Yes Moderate 0.16 in 0.0 iph
Date/Time
(MDT)
Sf
Temp Chem Water Layer Surface Precipitation
Sfc Pvt Sub Frz Factor Pct Dpth DpthThk IcePct Cond Salin FI Type Intens Accum Rate
05/23/2016 18:30 Error 48.6F - 51F - - - - - - 0 mhos 5 - Yes Moderate 0.16 in 0.0 iph
05/23/2016 18:21 Wet 48.7F - 51F 32F 5 0% 0.10 in - 0% 0 mhos 2 - Yes Moderate 0.16 in 0.0 iph
05/23/2016 18:15 Wet 49.1F - 51F 32F 5 0% 0.00 in - 0% 0 mhos 3 - Yes Moderate 0.16 in 0.0 iph
05/23/2016 18:11 Wet 48.9F - 51F 32F 5 0% 0.10 in - 0% 0 mhos 2 - Yes Moderate 0.16 in 0.0 iph
05/23/2016 18:01 Error 48.9F - 51F - - - - - - 0 mhos 4 - Yes Moderate 0.16 in 0.0 iph
05/23/2016 18:00 Error 49.1F - 51F - - - - - - 0 mhos 3 - Yes Moderate 0.16 in 0.0 iph
05/23/2016 17:51 Error 48.9F - 51F - - - - - - 0 mhos 4 - Rain Slight 0.15 in 0.0 iph
05/23/2016 17:45 Wet 49.6F - 51F 32F 5 0% 0.00 in - 0% 0 mhos 3 - Yes Moderate 0.15 in 0.0 iph
05/23/2016 17:41 Error 49.6F - 51F - - - - - - 0 mhos 4 - Rain Slight 0.15 in 0.0 iph
05/23/2016 17:31 Wet 50.0F - 51F 32F 5 0% 0.10 in - 0% 0 mhos 2 - Rain Slight 0.15 in 0.0 iph
05/23/2016 17:30 Error 50.5F - 51F - - - - - - 0 mhos 4 - Rain Slight 0.15 in 0.0 iph
05/23/2016 17:21 Error 49.8F - 51F - - - - - - 0 mhos 4 - Rain Slight 0.14 in 0.0 iph
05/23/2016 17:15 Wet 50.4F - 51F 32F 5 0% 0.00 in - 0% 0 mhos 4 - Yes Moderate 0.14 in 0.0 iph
05/23/2016 17:11 Wet 50.5F - 51F 32F 5 0% 0.00 in - 0% 0 mhos 5 - Yes Moderate 0.14 in 0.0 iph
05/23/2016 17:01 Wet 50.4F - 51F 32F 10 0% 0.00 in - 0% 0 mhos 5 - Yes Moderate 0.14 in 0.0 iph
Date/Time
(MDT)
Sf
Temp Chem Water Layer Surface Precipitation
Sfc Pvt Sub Frz Factor Pct Dpth DpthThk IcePct Cond Salin FI Type Intens Accum Rate
05/23/2016 17:00 Wet 49.8F - 51F 32F 10 0% 0.00 in - 0% 0 mhos 5 - Yes Moderate 0.14 in 0.0 iph
05/23/2016 16:51 Error 50.0F - 51F - - - - - - 0 mhos 5 - Yes Moderate 0.14 in 0.0 iph
05/23/2016 16:45 Wet 49.8F - 51F 32F 5 0% 0.00 in - 0% 0 mhos 3 - Yes Moderate 0.14 in 0.0 iph
05/23/2016 16:41 Wet 49.6F - 51F 32F 10 0% 0.00 in - 0% 0 mhos 4 - Yes Moderate 0.14 in 0.0 iph
05/23/2016 16:31 Error 49.5F - 51F - - - - - - 0 mhos 4 - Yes Moderate 0.14 in 0.0 iph
05/23/2016 16:30 Error 49.3F - 51F - - - - - - 0 mhos 4 - Yes Moderate 0.14 in 0.0 iph
05/23/2016 16:21 Wet 49.3F - 51F 32F 5 0% 0.10 in - 0% 0 mhos 2 - Yes Moderate 0.14 in 0.0 iph
05/23/2016 16:15 Error 49.1F - 51F - - - - - - 0 mhos 5 - Yes Moderate 0.14 in 0.0 iph
05/23/2016 16:11 Wet 48.7F - 51F 32F 5 0% 0.10 in - 0% 0 mhos 1 - Yes Moderate 0.14 in 0.0 iph
05/23/2016 16:01 Wet 49.5F - 51F 32F 10 0% 0.10 in - 0% 0 mhos 2 - Yes Moderate 0.14 in 0.0 iph
05/23/2016 16:00 Wet 49.1F - 51F 32F 5 0% 0.10 in - 0% 0 mhos 2 - Yes Moderate 0.14 in 0.0 iph
05/23/2016 15:51 Error 50.0F - 51F - - - - - - 0 mhos 4 - Yes Moderate 0.14 in 0.0 iph
05/23/2016 15:45 Error 50.4F - 51F - - - - - - 0 mhos 4 - Yes Moderate 0.14 in 0.0 iph
05/23/2016 15:41 Error 50.2F - 51F - - - - - - 0 mhos 4 - Yes Moderate 0.14 in 0.0 iph
05/23/2016 15:31 Wet 49.8F - 51F 32F 5 0% 0.10 in - 0% 0 mhos 2 - Yes Moderate 0.14 in 0.0 iph
Date/Time
(MDT)
Sf
Temp Chem Water Layer Surface Precipitation
Sfc Pvt Sub Frz Factor Pct Dpth DpthThk IcePct Cond Salin FI Type Intens Accum Rate
05/23/2016 15:30 Error 49.8F - 51F - - - - - - 0 mhos 3 - Yes Moderate 0.14 in 0.0 iph
05/23/2016 15:21 Error 50.5F - 51F - - - - - - 0 mhos 4 - Yes Moderate 0.14 in 0.0 iph
05/23/2016 15:15 Error 50.9F - 51F - - - - - - 0 mhos 4 - Yes Moderate 0.14 in 0.0 iph
05/23/2016 15:11 Error 51.1F - 51F - - - - - - 0 mhos 4 - Yes Moderate 0.14 in 0.0 iph
05/23/2016 15:01 Error 51.1F - 51F - - - - - - 0 mhos 3 - Yes Moderate 0.14 in 0.0 iph
05/23/2016 15:00 Error 50.9F - 51F - - - - - - 0 mhos 4 - Yes Moderate 0.14 in 0.0 iph
05/23/2016 14:51 Error 50.4F - 51F - - - - - - 0 mhos 3 - Yes Moderate 0.14 in 0.0 iph
05/23/2016 14:45 Error 50.5F - 51F - - - - - - 0 mhos 3 - Yes Moderate 0.14 in 0.0 iph
05/23/2016 14:41 Error 49.6F - 51F - - - - - - 0 mhos 3 - Rain Slight 0.14 in 0.0 iph
05/23/2016 14:31 Error 49.5F - 51F - - - - - - 0 mhos 3 - Yes Moderate 0.13 in 0.0 iph
05/23/2016 14:30 Error 49.5F - 51F - - - - - - 0 mhos 3 - Rain Slight 0.13 in 0.0 iph
05/23/2016 14:21 Error 48.6F - 51F - - - - - - 0 mhos 3 - Yes Moderate 0.13 in 0.0 iph
05/23/2016 14:15 Wet 48.4F - 51F 32F 10 0% 0.00 in - 0% 0 mhos 3 - Yes Moderate 0.13 in 0.0 iph
05/23/2016 14:11 Error 47.8F - 51F - - - - - - 0 mhos 3 - Yes Moderate 0.13 in 0.0 iph
05/23/2016 14:01 Error 47.1F - 51F - - - - - - 0 mhos 3 - Yes Moderate 0.13 in 0.0 iph
Date/Time
(MDT)
Sf
Temp Chem Water Layer Surface Precipitation
Sfc Pvt Sub Frz Factor Pct Dpth DpthThk IcePct Cond Salin FI Type Intens Accum Rate
05/23/2016 14:00 Error 47.1F - 51F - - - - - - 0 mhos 3 - Yes Moderate 0.13 in 0.0 iph
05/23/2016 13:51 Wet 47.1F - 51F 32F 10 0% 0.00 in - 0% 0 mhos 3 - Yes Moderate 0.13 in 0.0 iph
05/23/2016 13:45 Error 47.3F - 51F - - - - - - 0 mhos 3 - Yes Moderate 0.12 in 0.0 iph
05/23/2016 13:41 Wet 47.1F - 51F 32F 5 0% 0.00 in - 0% 0 mhos 3 - Rain Slight 0.12 in 0.0 iph
05/23/2016 13:31 Error 47.3F - 51F - - - - - - 0 mhos 3 - Yes Moderate 0.11 in 0.0 iph
05/23/2016 13:30 Wet 47.1F - 51F 32F 10 0% 0.10 in - 0% 0 mhos 3 - Yes Moderate 0.11 in 0.0 iph
05/23/2016 13:21 Error 47.1F - 51F - - - - - - 0 mhos 3 - Rain Slight 0.11 in 0.0 iph
05/23/2016 13:15 Error 46.9F - 51F - - - - - - 0 mhos 3 - Yes Moderate 0.11 in 0.0 iph
05/23/2016 13:11 Error 46.8F - 51F - - - - - - 0 mhos 3 - Rain Slight 0.11 in 0.0 iph
05/23/2016 13:01 Error 47.3F - 51F - - - - - - 0 mhos 4 - Yes Moderate 0.11 in 0.0 iph
05/23/2016 13:00 Error 47.3F - 51F - - - - - - 0 mhos 4 - Yes Moderate 0.11 in 0.0 iph
05/23/2016 12:51 Error 47.1F - 51F - - - - - - 0 mhos 4 - Yes Moderate 0.11 in 0.0 iph
05/23/2016 12:45 Error 47.1F - 51F - - - - - - 0 mhos 4 - Yes Moderate 0.11 in 0.0 iph
05/23/2016 12:40 Error 47.1F - 51F - - - - - - 0 mhos 5 - Yes Moderate 0.11 in 0.0 iph
05/23/2016 12:30 Error 47.3F - 51F - - - - - - 0 mhos 4 - Yes Moderate 0.11 in 0.0 iph
Date/Time
(MDT)
Sf
Temp Chem Water Layer Surface Precipitation
Sfc Pvt Sub Frz Factor Pct Dpth DpthThk IcePct Cond Salin FI Type Intens Accum Rate
05/23/2016 12:30 Error 47.3F - 51F - - - - - - 0 mhos 4 - Yes Moderate 0.11 in 0.0 iph
05/23/2016 12:20 Error 46.9F - 51F - - - - - - 0 mhos 5 - Rain Slight 0.11 in 0.0 iph
05/23/2016 12:15 Error 46.8F - 51F - - - - - - 0 mhos 5 - Yes Moderate 0.11 in 0.0 iph
05/23/2016 12:10 Error 46.8F - 51F - - - - - - 0 mhos 6 - Yes Moderate 0.11 in 0.0 iph
05/23/2016 12:00 Error 46.8F - 51F - - - - - - 0 mhos 6 - Yes Moderate 0.11 in 0.0 iph
05/23/2016 12:00 Error 46.8F - 51F - - - - - - 0 mhos 6 - Yes Moderate 0.11 in 0.0 iph
05/23/2016 11:50 Error 46.0F - 51F - - - - - - 0 mhos 6 - Yes Moderate 0.11 in 0.0 iph
05/23/2016 11:45 Error 46.2F - 51F - - - - - - 0 mhos 8 - Yes Moderate 0.11 in 0.0 iph
05/23/2016 11:40 Error 46.4F - 51F - - - - - - 0 mhos 2 - Yes Moderate 0.11 in 0.0 iph
05/23/2016 11:30 Wet 46.0F - 51F 32F 5 0% 0.00 in - 0% 0 mhos 5 - Yes Moderate 0.11 in 0.0 iph
05/23/2016 11:30 Wet 46.0F - 51F 32F 5 0% 0.00 in - 0% 0 mhos 5 - Yes Moderate 0.11 in 0.0 iph
05/23/2016 11:20 Wet 46.2F - 51F 32F 5 0% 0.00 in - 0% 0 mhos 5 - Yes Moderate 0.11 in 0.0 iph
05/23/2016 11:15 Wet 45.7F - 51F 32F 5 0% 0.00 in - 0% 0 mhos 6 - Yes Moderate 0.11 in 0.0 iph
05/23/2016 11:10 Error 45.7F - 51F - - - - - - 0 mhos 5 - Yes Moderate 0.11 in 0.0 iph
05/23/2016 11:00 Wet 46.2F - 51F 32F 10 0% 0.00 in - 0% 0 mhos 4 - None None 0.11 in 0.0 iph
Date/Time
(MDT)
Sf
Temp Chem Water Layer Surface Precipitation
Sfc Pvt Sub Frz Factor Pct Dpth DpthThk IcePct Cond Salin FI Type Intens Accum Rate
05/23/2016 11:00 Wet 46.2F - 51F 32F 10 0% 0.00 in - 0% 0 mhos 4 - None None 0.11 in 0.0 iph
05/23/2016 10:50 Error 46.0F - 52F - - - - - - 0 mhos 5 - Yes Moderate 0.11 in 0.0 iph
05/23/2016 10:45 Wet 46.4F - 51F 32F 5 0% 0.00 in - 0% 0 mhos 4 - Yes Moderate 0.11 in 0.0 iph
05/23/2016 10:40 Wet 46.6F - 52F 32F 10 0% 0.00 in - 0% 0 mhos 5 - Yes Slight 0.11 in 0.0 iph
05/23/2016 10:30 Wet 47.1F - 52F 32F 10 0% 0.00 in - 0% 0 mhos 5 - Yes Slight 0.11 in 0.0 iph
05/23/2016 10:30 Wet 47.1F - 52F 32F 10 0% 0.00 in - 0% 0 mhos 5 - Yes Slight 0.11 in 0.0 iph
05/23/2016 10:20 Error 47.1F - 52F - - - - - - 0 mhos 9 - Yes Moderate 0.11 in 0.0 iph
05/23/2016 10:15 Error 47.1F - 52F - - - - - - 0 mhos 6 - Yes Moderate 0.11 in 0.0 iph
05/23/2016 10:10 Error 47.3F - 52F - - - - - - 0 mhos 6 - Yes Moderate 0.11 in 0.0 iph
05/23/2016 10:00 Error 48.2F - 52F - - - - - - 0 mhos 5 - None None 0.11 in 0.0 iph
05/23/2016 10:00 Error 48.2F - 52F - - - - - - 0 mhos 5 - None None 0.11 in 0.0 iph
05/23/2016 09:50 Wet 47.8F - 52F 32F 10 0% 0.00 in - 0% 0 mhos 4 - Yes Moderate 0.11 in 0.0 iph
05/23/2016 09:45 Error 47.3F - 52F - - - - - - 0 mhos 7 - Yes Moderate 0.11 in 0.0 iph
Change End Date:

Copyright © 1998-2015 Vaisala, Inc.
All Rights Reserved
Send comments about the data to:
SCAN Web ® is a registered trademark of Vaisala, Inc.
SCAN Web Version 6.0